createdAt,value
2022-11-28T00:02:08.529Z,7.43
2022-11-28T00:07:15.583Z,7.87
2022-11-28T00:12:19.818Z,7.73
2022-11-28T00:17:23.898Z,7.87
2022-11-28T00:22:29.922Z,8.43
2022-11-28T00:27:36.689Z,7.70
2022-11-28T00:32:42.659Z,7.97
2022-11-28T00:37:44.357Z,8.30
2022-11-28T00:42:48.397Z,8.50
2022-11-28T00:47:53.108Z,8.70
2022-11-28T00:52:57.003Z,8.90
2022-11-28T00:58:01.191Z,11.00
2022-11-28T01:03:05.088Z,12.87
2022-11-28T01:08:13.033Z,11.60
2022-11-28T01:13:14.927Z,11.30
2022-11-28T01:18:16.629Z,10.07
2022-11-28T01:23:21.464Z,10.63
2022-11-28T01:28:25.155Z,9.00
2022-11-28T01:33:29.248Z,9.37
2022-11-28T01:38:31.900Z,9.17
2022-11-28T01:43:36.945Z,10.30
2022-11-28T01:48:44.737Z,9.53
2022-11-28T01:53:49.329Z,9.30
2022-11-28T01:59:01.712Z,9.43
2022-11-28T02:04:05.031Z,9.53
2022-11-28T02:09:18.652Z,8.70
2022-11-28T02:14:25.118Z,9.03
2022-11-28T02:20:10.977Z,8.93
2022-11-28T02:25:40.081Z,8.97
2022-11-28T02:31:18.608Z,8.37
2022-11-28T02:36:32.559Z,8.27
2022-11-28T02:41:46.461Z,8.77
2022-11-28T02:47:06.792Z,8.23
2022-11-28T02:52:30.189Z,8.77
2022-11-28T02:57:43.610Z,7.47
2022-11-28T03:02:45.621Z,7.00
2022-11-28T03:08:34.135Z,7.90
2022-11-28T03:13:53.732Z,8.33
2022-11-28T03:19:10.345Z,7.70
2022-11-28T03:24:25.359Z,7.43
2022-11-28T03:29:33.756Z,7.50
2022-11-28T03:34:44.614Z,7.20
2022-11-28T03:39:50.548Z,6.83
2022-11-28T03:44:59.055Z,6.67
2022-11-28T03:50:05.816Z,6.33
2022-11-28T03:55:30.174Z,6.30
2022-11-28T04:00:37.448Z,6.40
2022-11-28T04:05:46.134Z,6.50
2022-11-28T04:11:03.891Z,6.50
2022-11-28T04:16:36.217Z,6.80
2022-11-28T04:21:45.202Z,6.10
2022-11-28T04:26:49.493Z,6.20
2022-11-28T04:31:56.313Z,6.07
2022-11-28T04:36:59.229Z,6.20
2022-11-28T04:42:30.975Z,6.00
2022-11-28T04:47:33.550Z,6.40
2022-11-28T04:52:53.327Z,6.40
2022-11-28T04:58:03.431Z,6.20
2022-11-28T05:03:08.021Z,7.10
2022-11-28T05:08:09.986Z,6.97
2022-11-28T05:13:14.982Z,6.47
2022-11-28T05:18:19.658Z,6.93
2022-11-28T05:23:24.728Z,6.77
2022-11-28T05:28:27.452Z,7.17
2022-11-28T05:33:30.405Z,7.33
2022-11-28T05:38:37.561Z,6.83
2022-11-28T05:43:39.294Z,7.10
2022-11-28T05:48:46.248Z,7.37
2022-11-28T05:53:47.978Z,7.97
2022-11-28T05:58:53.457Z,6.63
2022-11-28T06:04:01.102Z,6.73
2022-11-28T06:09:08.317Z,7.13
2022-11-28T06:14:14.883Z,8.30
2022-11-28T06:19:18.869Z,7.03
2022-11-28T06:24:20.695Z,7.43
2022-11-28T06:29:27.387Z,7.77
2022-11-28T06:34:32.487Z,8.70
2022-11-28T06:39:38.731Z,8.13
2022-11-28T06:44:40.437Z,8.50
2022-11-28T06:49:45.261Z,8.70
2022-11-28T06:54:49.640Z,9.47
2022-11-28T06:59:54.285Z,9.50
2022-11-28T07:04:58.443Z,10.20
2022-11-28T07:10:00.240Z,10.10
2022-11-28T07:15:11.880Z,11.07
2022-11-28T07:20:14.046Z,9.03
2022-11-28T07:25:24.890Z,11.07
2022-11-28T07:30:26.810Z,9.93
2022-11-28T07:35:31.260Z,10.37
2022-11-28T07:40:35.483Z,11.27
2022-11-28T07:45:59.226Z,11.97
2022-11-28T07:51:09.365Z,11.57
2022-11-28T07:56:15.086Z,12.13
2022-11-28T08:01:23.617Z,12.80
2022-11-28T08:06:28.276Z,12.40
2022-11-28T08:11:30.142Z,12.27
2022-11-28T08:16:32.250Z,13.00
2022-11-28T08:21:35.441Z,13.20
2022-11-28T08:26:37.525Z,13.20
2022-11-28T08:31:43.655Z,13.60
2022-11-28T08:36:47.456Z,14.20
2022-11-28T08:41:51.615Z,14.23
2022-11-28T08:46:58.226Z,13.10
2022-11-28T08:52:00.876Z,13.23
2022-11-28T08:57:02.592Z,14.30
2022-11-28T09:02:06.997Z,14.80
2022-11-28T09:07:08.801Z,13.03
2022-11-28T09:12:12.725Z,13.30
2022-11-28T09:17:19.744Z,15.00
2022-11-28T09:22:22.034Z,15.17
2022-11-28T09:27:25.982Z,15.50
2022-11-28T09:32:27.786Z,14.97
2022-11-28T09:37:30.973Z,14.47
2022-11-28T09:42:37.439Z,16.03
2022-11-28T09:47:42.608Z,15.00
2022-11-28T09:52:57.778Z,14.20
2022-11-28T09:58:12.747Z,15.17
2022-11-28T10:03:16.767Z,14.67
2022-11-28T10:08:59.997Z,15.80
2022-11-28T10:14:21.008Z,15.43
2022-11-28T10:19:54.405Z,15.90
2022-11-28T10:25:07.455Z,14.10
2022-11-28T10:30:22.552Z,13.67
2022-11-28T10:35:40.218Z,14.47
2022-11-28T10:40:55.621Z,13.93
2022-11-28T10:46:39.243Z,13.37
2022-11-28T10:51:56.318Z,13.13
2022-11-28T10:57:11.892Z,13.10
2022-11-28T11:02:27.542Z,14.20
2022-11-28T11:07:33.638Z,14.83
2022-11-28T11:12:39.067Z,14.23
2022-11-28T11:17:43.181Z,13.57
2022-11-28T11:23:13.831Z,13.43
2022-11-28T11:28:40.994Z,13.33
2022-11-28T11:33:45.744Z,12.97
2022-11-28T11:38:48.513Z,12.30
2022-11-28T11:43:50.332Z,12.07
2022-11-28T11:48:57.537Z,11.90
2022-11-28T11:54:17.750Z,13.50
2022-11-28T11:59:23.571Z,12.93
2022-11-28T12:04:54.966Z,12.57
2022-11-28T12:15:47.181Z,12.23
2022-11-28T12:21:11.777Z,12.57
2022-11-28T12:26:25.729Z,11.83
2022-11-28T12:31:30.593Z,13.20
2022-11-28T12:36:52.695Z,13.30
2022-11-28T12:41:56.711Z,13.47
2022-11-28T12:47:25.803Z,14.73
2022-11-28T12:52:57.772Z,13.87
2022-11-28T12:58:23.047Z,14.53
2022-11-28T13:03:31.561Z,14.33
2022-11-28T13:08:48.409Z,14.60
2022-11-28T13:13:55.154Z,15.20
2022-11-28T13:19:36.837Z,15.97
2022-11-28T13:25:04.051Z,14.77
2022-11-28T13:30:22.702Z,15.90
2022-11-28T13:35:24.818Z,14.73
2022-11-28T13:40:42.645Z,15.40
2022-11-28T13:45:48.721Z,15.30
2022-11-28T13:51:28.879Z,15.63
2022-11-28T13:56:32.536Z,14.53
2022-11-28T14:01:46.101Z,15.23
2022-11-28T14:06:54.507Z,14.77
2022-11-28T14:12:17.710Z,15.30
2022-11-28T14:17:23.176Z,15.60
2022-11-28T14:22:35.845Z,17.30
2022-11-28T14:27:39.960Z,15.57
2022-11-28T14:32:43.707Z,18.57
2022-11-28T14:37:52.768Z,16.33
2022-11-28T14:43:25.795Z,17.40
2022-11-28T14:48:30.193Z,18.83
2022-11-28T14:53:34.572Z,17.83
2022-11-28T14:58:41.782Z,18.00
2022-11-28T15:04:08.216Z,17.60
2022-11-28T15:09:20.116Z,17.90
2022-11-28T15:14:27.146Z,17.97
2022-11-28T15:19:39.302Z,19.43
2022-11-28T15:24:42.567Z,19.23
2022-11-28T15:29:53.501Z,22.90
2022-11-28T15:35:11.066Z,17.90
2022-11-28T15:40:21.245Z,19.63
2022-11-28T15:45:26.387Z,17.40
2022-11-28T15:50:30.595Z,20.83
2022-11-28T15:55:33.865Z,19.50
2022-11-28T16:00:35.913Z,21.23
2022-11-28T16:05:41.567Z,19.07
2022-11-28T16:10:44.437Z,20.67
2022-11-28T16:15:50.159Z,20.17
2022-11-28T16:20:52.348Z,19.37
2022-11-28T16:26:04.737Z,19.43
2022-11-28T16:31:13.167Z,21.70
2022-11-28T16:36:34.045Z,20.57
2022-11-28T16:41:48.751Z,21.80
2022-11-28T16:46:55.168Z,20.97
2022-11-28T16:52:28.949Z,37.70
2022-11-28T16:57:47.626Z,45.73
2022-11-28T17:02:52.889Z,46.60
2022-11-28T17:07:58.942Z,44.83
2022-11-28T17:13:04.225Z,42.00
2022-11-28T17:18:11.945Z,30.17
2022-11-28T17:23:26.825Z,39.30
2022-11-28T17:28:30.592Z,25.63
2022-11-28T17:33:33.362Z,24.53
2022-11-28T17:38:36.475Z,29.07
2022-11-28T17:43:39.367Z,24.83
2022-11-28T17:48:49.895Z,25.33
2022-11-28T17:53:53.494Z,25.13
2022-11-28T17:58:55.655Z,23.50
2022-11-28T18:03:57.588Z,24.23
2022-11-28T18:09:00.498Z,23.27
2022-11-28T18:14:05.762Z,23.83
2022-11-28T18:19:08.323Z,23.13
2022-11-28T18:24:10.466Z,22.90
2022-11-28T18:29:12.353Z,22.47
2022-11-28T18:34:14.504Z,22.60
2022-11-28T18:39:23.194Z,23.33
2022-11-28T18:44:24.938Z,23.03
2022-11-28T18:49:27.827Z,22.73
2022-11-28T18:54:33.055Z,21.73
2022-11-28T18:59:37.851Z,22.90
2022-11-28T19:04:39.959Z,22.17
2022-11-28T19:09:45.236Z,21.63
2022-11-28T19:14:56.159Z,22.93
2022-11-28T19:20:02.852Z,23.50
2022-11-28T19:25:07.609Z,23.63
2022-11-28T19:30:10.156Z,22.77
2022-11-28T19:35:12.741Z,23.60
2022-11-28T19:40:17.749Z,22.83
2022-11-28T19:45:20.085Z,22.63
2022-11-28T19:50:22.177Z,23.03
2022-11-28T19:55:24.306Z,23.57
2022-11-28T20:00:26.267Z,24.73
2022-11-28T20:05:34.246Z,23.33
2022-11-28T20:10:37.867Z,23.70
2022-11-28T20:15:39.599Z,26.07
2022-11-28T20:20:41.652Z,24.43
2022-11-28T20:25:46.138Z,24.37
2022-11-28T20:30:47.986Z,25.73
2022-11-28T20:35:49.695Z,31.17
2022-11-28T20:41:02.532Z,24.33
2022-11-28T20:46:09.629Z,25.13
2022-11-28T20:51:13.748Z,24.10
2022-11-28T20:56:21.505Z,24.33
2022-11-28T21:01:33.284Z,23.30
2022-11-28T21:06:38.204Z,24.20
2022-11-28T21:11:56.720Z,24.93
2022-11-28T21:16:59.688Z,25.23
2022-11-28T21:22:01.651Z,23.87
2022-11-28T21:27:04.358Z,26.67
2022-11-28T21:32:13.547Z,24.57
2022-11-28T21:37:20.096Z,28.30
2022-11-28T21:42:22.431Z,26.43
2022-11-28T21:47:26.142Z,26.90
2022-11-28T21:52:32.595Z,26.23
2022-11-28T21:57:40.696Z,26.67
2022-11-28T22:02:49.498Z,25.23
2022-11-28T22:07:53.385Z,26.67
2022-11-28T22:12:57.323Z,25.70
2022-11-28T22:18:00.567Z,26.77
2022-11-28T22:23:05.778Z,24.73
2022-11-28T22:28:07.517Z,27.23
2022-11-28T22:33:12.019Z,27.77
2022-11-28T22:38:17.598Z,28.13
2022-11-28T22:43:21.876Z,29.20
2022-11-28T22:48:24.519Z,26.63
2022-11-28T22:53:26.420Z,27.57
2022-11-28T22:58:36.866Z,27.90
2022-11-28T23:03:45.946Z,27.23
2022-11-28T23:08:50.320Z,30.57
2022-11-28T23:13:55.003Z,28.50
2022-11-28T23:18:59.927Z,28.00
2022-11-28T23:24:04.179Z,29.07
2022-11-28T23:29:09.514Z,28.10
2022-11-28T23:34:11.518Z,29.07
2022-11-28T23:39:21.740Z,28.43
2022-11-28T23:44:23.437Z,28.27
2022-11-28T23:49:25.172Z,29.60
2022-11-28T23:54:26.969Z,28.50
2022-11-28T23:59:28.668Z,30.50
